Time;durP1;ratioP1;P1;durP2;ratioP2;P2;SDS_P1;SDS_P2;PMS_P1;PMS_P2;Temp;Humidity;BMP_temperature;BMP_pressure;BME280_temperature;BME280_humidity;BME280_pressure;Samples;Min_cycle;Max_cycle;Signal;HPM_P1;HPM_P2
2023/09/09 00:00:51;;;;;;;13.40;9.45;;;;;;;19.39;70.97;101168.06;5090063;28;20139;-61
2023/09/09 00:03:19;;;;;;;13.05;9.98;;;;;;;19.36;71.58;101164.81;5085837;28;20139;-60
2023/09/09 00:05:47;;;;;;;14.15;10.20;;;;;;;19.36;71.20;101164.81;5092067;28;20068;-59
2023/09/09 00:08:21;;;;;;;11.30;8.85;;;;;;;19.32;70.85;101161.59;5068881;28;20060;-59
2023/09/09 00:10:48;;;;;;;12.60;10.65;;;;;;;19.31;71.32;101164.38;5089691;28;20082;-60
2023/09/09 00:13:15;;;;;;;10.52;9.43;;;;;;;19.28;71.78;101164.66;5088739;28;20048;-62
2023/09/09 00:15:42;;;;;;;14.07;9.50;;;;;;;19.24;71.83;101161.41;5070908;28;20072;-63
2023/09/09 00:18:10;;;;;;;12.65;9.60;;;;;;;19.22;72.88;101164.19;5089893;28;20474;-60
2023/09/09 00:20:40;;;;;;;10.82;9.48;;;;;;;19.21;72.98;101159.00;5091273;28;20048;-60
2023/09/09 00:23:08;;;;;;;12.43;9.98;;;;;;;19.18;73.29;101161.91;5067322;28;20071;-59
2023/09/09 00:25:36;;;;;;;13.27;10.02;;;;;;;19.15;73.22;101159.53;5087689;28;20058;-62
2023/09/09 00:28:04;;;;;;;13.10;9.07;;;;;;;19.14;73.38;101157.84;5092015;28;20068;-59
2023/09/09 00:30:31;;;;;;;15.90;10.00;;;;;;;19.11;72.99;101156.28;5088058;28;20143;-60
2023/09/09 00:32:58;;;;;;;12.05;10.32;;;;;;;19.10;73.46;101154.59;5082667;28;20060;-62
2023/09/09 00:35:27;;;;;;;13.25;10.07;;;;;;;19.08;73.85;101155.69;5087231;28;20128;-60
2023/09/09 00:37:54;;;;;;;11.23;8.65;;;;;;;19.07;74.24;101154.84;5089805;28;20143;-59
2023/09/09 00:40:22;;;;;;;11.93;10.00;;;;;;;19.05;73.54;101151.50;5084307;28;20143;-59
2023/09/09 00:42:49;;;;;;;16.92;10.20;;;;;;;19.04;74.54;101151.59;5087070;28;20443;-56
2023/09/09 00:45:16;;;;;;;15.68;10.82;;;;;;;19.01;74.82;101154.56;5088283;28;20131;-61
2023/09/09 00:47:44;;;;;;;13.00;9.35;;;;;;;18.97;74.75;101159.31;5086265;28;20115;-61
2023/09/09 00:50:13;;;;;;;12.63;9.73;;;;;;;18.96;74.44;101155.78;5072565;28;20174;-61
2023/09/09 00:52:42;;;;;;;12.18;10.02;;;;;;;18.95;74.66;101155.91;5070824;28;20139;-61
2023/09/09 00:55:11;;;;;;;12.60;9.63;;;;;;;18.94;74.69;101151.53;5085763;28;20068;-60
2023/09/09 00:57:38;;;;;;;11.38;8.82;;;;;;;18.94;75.21;101148.88;5089232;28;20051;-59
2023/09/09 01:00:09;;;;;;;11.65;10.45;;;;;;;18.91;76.80;101146.47;5072398;28;20044;-59
2023/09/09 01:02:40;;;;;;;12.38;9.52;;;;;;;18.87;75.66;101148.56;5082838;28;20265;-60
2023/09/09 01:05:09;;;;;;;15.20;10.10;;;;;;;18.85;75.92;101147.00;5083181;28;20435;-59
2023/09/09 01:07:49;;;;;;;14.48;9.95;;;;;;;18.82;76.23;101152.59;5070641;28;20135;-60
2023/09/09 01:10:17;;;;;;;13.77;10.65;;;;;;;18.79;76.18;101151.03;5089271;28;20095;-59
2023/09/09 01:12:45;;;;;;;14.60;10.48;;;;;;;18.77;77.56;101144.97;5089843;28;20140;-60
2023/09/09 01:15:13;;;;;;;11.48;9.55;;;;;;;18.75;76.78;101151.44;5072792;28;20044;-60
2023/09/09 01:17:40;;;;;;;15.68;9.48;;;;;;;18.72;76.50;101150.69;5084144;28;20135;-62
2023/09/09 01:20:16;;;;;;;12.30;9.23;;;;;;;18.72;76.55;101144.53;5088075;28;20139;-62
2023/09/09 01:22:44;;;;;;;11.88;10.45;;;;;;;18.69;76.79;101145.66;5085920;28;20079;-58
2023/09/09 01:25:12;;;;;;;11.90;10.48;;;;;;;18.68;77.22;101135.06;5057958;28;20139;-61
2023/09/09 01:27:40;;;;;;;12.55;10.18;;;;;;;18.68;76.75;101140.41;5090168;28;20102;-60
2023/09/09 01:30:08;;;;;;;15.98;10.57;;;;;;;18.66;78.72;101145.03;5090264;28;20138;-60
2023/09/09 01:32:35;;;;;;;17.02;10.00;;;;;;;18.61;77.84;101142.75;5082433;28;20140;-61
2023/09/09 01:35:04;;;;;;;14.68;10.82;;;;;;;18.58;78.68;101145.66;5084903;28;20349;-60
2023/09/09 01:37:32;;;;;;;15.35;10.43;;;;;;;18.54;78.91;101141.56;5082375;28;20131;-60
2023/09/09 01:40:10;;;;;;;13.18;10.15;;;;;;;18.51;78.50;101139.19;5085072;28;20079;-61
2023/09/09 01:42:38;;;;;;;11.07;9.80;;;;;;;18.48;78.50;101137.59;5086349;28;20044;-59
2023/09/09 01:45:05;;;;;;;11.75;9.52;;;;;;;18.48;78.73;101137.59;5089930;28;20137;-61
2023/09/09 01:47:33;;;;;;;11.25;9.93;;;;;;;18.46;78.75;101139.56;5069581;28;20052;-63
2023/09/09 01:50:00;;;;;;;12.95;10.32;;;;;;;18.45;78.86;101137.00;5089099;28;20139;-61
2023/09/09 01:52:27;;;;;;;10.88;9.70;;;;;;;18.42;78.53;101132.78;5068470;28;20052;-61
2023/09/09 01:54:55;;;;;;;14.32;9.95;;;;;;;18.41;78.80;101138.22;5085155;28;20138;-58
2023/09/09 01:57:26;;;;;;;13.07;10.38;;;;;;;18.39;78.94;101130.38;5060162;28;20534;-60
2023/09/09 01:59:54;;;;;;;14.48;9.70;;;;;;;18.37;80.65;101136.78;5089094;28;20518;-60
2023/09/09 02:02:22;;;;;;;11.93;9.32;;;;;;;18.31;80.21;101127.50;5088759;28;20190;-58
2023/09/09 02:04:49;;;;;;;13.43;9.93;;;;;;;18.30;79.78;101128.47;5091877;28;20048;-62
2023/09/09 02:07:16;;;;;;;11.77;10.00;;;;;;;18.28;80.10;101130.44;5090305;28;20083;-60
2023/09/09 02:09:45;;;;;;;12.80;10.07;;;;;;;18.28;81.00;101124.25;5088825;28;20152;-59
2023/09/09 02:12:13;;;;;;;13.02;9.52;;;;;;;18.26;80.69;101123.53;5089043;28;20074;-59
2023/09/09 02:14:40;;;;;;;12.45;10.75;;;;;;;18.25;80.61;101121.84;5089160;28;20135;-64
2023/09/09 02:17:08;;;;;;;13.40;10.32;;;;;;;18.23;80.16;101129.94;5078657;28;20084;-60
2023/09/09 02:19:35;;;;;;;12.02;9.30;;;;;;;18.20;80.61;101127.56;5084842;28;20395;-61
2023/09/09 02:22:04;;;;;;;14.52;11.35;;;;;;;18.15;81.32;101121.78;5055247;28;20076;-60
2023/09/09 02:24:34;;;;;;;13.70;10.10;;;;;;;18.11;81.31;101121.19;5085039;28;20185;-61
2023/09/09 02:27:02;;;;;;;11.50;9.82;;;;;;;18.11;81.62;101123.00;5084562;28;20048;-61
2023/09/09 02:29:30;;;;;;;12.88;9.80;;;;;;;18.09;81.56;101122.25;5088588;28;20117;-58
2023/09/09 02:31:57;;;;;;;11.45;10.00;;;;;;;18.08;81.81;101129.41;5087879;28;20830;-59
2023/09/09 02:34:25;;;;;;;16.77;10.70;;;;;;;18.07;81.98;101121.56;5087427;28;20282;-61
2023/09/09 02:37:18;;;;;;;14.70;11.45;;;;;;;18.05;82.06;101128.81;5066365;28;20434;-60
2023/09/09 02:39:47;;;;;;;12.40;9.77;;;;;;;18.03;81.68;101115.63;5064100;28;20151;-60
2023/09/09 02:42:17;;;;;;;12.65;9.73;;;;;;;18.02;81.72;101119.28;5083497;28;20062;-60
2023/09/09 02:44:44;;;;;;;13.68;10.90;;;;;;;18.02;82.23;101113.09;5088622;28;20139;-61
2023/09/09 02:47:14;;;;;;;16.63;11.25;;;;;;;18.01;82.09;101119.38;5088260;28;20570;-59
2023/09/09 02:49:43;;;;;;;11.38;10.18;;;;;;;18.00;82.79;101123.88;5087378;28;20076;-59
2023/09/09 02:52:11;;;;;;;16.45;10.93;;;;;;;17.98;83.20;101114.31;5069008;28;20082;-61
2023/09/09 02:54:39;;;;;;;13.57;10.98;;;;;;;17.95;82.86;101116.25;5087132;28;20451;-59
2023/09/09 02:57:06;;;;;;;17.23;9.63;;;;;;;17.94;83.59;101111.06;5081121;28;20136;-59
2023/09/09 02:59:36;;;;;;;12.90;11.50;;;;;;;17.90;83.32;101105.13;5079689;28;20098;-59
2023/09/09 03:02:03;;;;;;;12.60;10.77;;;;;;;17.89;83.40;101113.25;5085075;28;20044;-55
2023/09/09 03:04:30;;;;;;;14.50;10.45;;;;;;;17.85;84.97;101109.16;5083720;28;20052;-60
2023/09/09 03:06:58;;;;;;;12.68;11.38;;;;;;;17.80;85.36;101109.53;5083934;28;20091;-56
2023/09/09 03:09:26;;;;;;;13.00;10.98;;;;;;;17.77;84.89;101111.59;5088747;28;20549;-58
2023/09/09 03:11:54;;;;;;;14.50;11.15;;;;;;;17.77;84.36;101104.44;5085937;28;20047;-59
2023/09/09 03:14:21;;;;;;;16.38;10.65;;;;;;;17.78;84.48;101107.94;5086887;28;20079;-56
2023/09/09 03:16:48;;;;;;;15.50;11.52;;;;;;;17.75;84.48;101109.06;5077559;28;20345;-57
2023/09/09 03:19:16;;;;;;;17.33;11.68;;;;;;;17.72;84.84;101109.28;5092190;28;20080;-57
2023/09/09 03:21:43;;;;;;;16.50;11.45;;;;;;;17.71;85.19;101113.75;5091138;28;20083;-56
2023/09/09 03:24:10;;;;;;;12.45;11.15;;;;;;;17.70;84.45;101120.06;5087537;28;20147;-57
2023/09/09 03:26:37;;;;;;;13.00;10.00;;;;;;;17.70;84.44;101116.56;5077455;28;20075;-57
2023/09/09 03:29:05;;;;;;;14.32;11.02;;;;;;;17.68;85.26;101116.66;5087275;28;20099;-54
2023/09/09 03:31:33;;;;;;;13.07;11.02;;;;;;;17.68;85.75;101113.16;5085035;28;20052;-58
2023/09/09 03:34:01;;;;;;;15.07;11.75;;;;;;;17.66;85.61;101120.44;5086524;28;20048;-58
2023/09/09 03:36:28;;;;;;;14.07;11.40;;;;;;;17.62;85.65;101125.16;5083783;28;20052;-53
2023/09/09 03:38:55;;;;;;;17.35;12.45;;;;;;;17.59;86.39;101128.03;5087175;28;20070;-61
2023/09/09 03:41:23;;;;;;;15.65;12.18;;;;;;;17.58;86.12;101122.84;5080334;28;20051;-59
2023/09/09 03:43:50;;;;;;;15.43;11.68;;;;;;;17.56;86.30;101127.44;5082319;28;20044;-60
2023/09/09 03:46:18;;;;;;;14.27;11.88;;;;;;;17.55;86.42;101129.25;5087173;28;20510;-61
2023/09/09 03:48:46;;;;;;;15.10;11.95;;;;;;;17.54;86.32;101132.91;5086865;28;20446;-58
2023/09/09 03:51:13;;;;;;;13.80;11.82;;;;;;;17.53;86.27;101125.03;5088244;28;20080;-60
2023/09/09 03:53:40;;;;;;;14.88;11.45;;;;;;;17.50;86.61;101117.28;5083110;28;20052;-62
2023/09/09 03:56:08;;;;;;;15.30;10.95;;;;;;;17.48;86.57;101121.91;5067759;28;20139;-62
2023/09/09 03:58:35;;;;;;;18.38;11.27;;;;;;;17.44;86.88;101131.94;5091418;28;20071;-61
2023/09/09 04:01:07;;;;;;;13.23;11.82;;;;;;;17.40;86.57;101122.50;5095815;28;20091;-60
2023/09/09 04:03:36;;;;;;;14.85;13.10;;;;;;;17.36;88.64;101127.22;5084891;28;20066;-60
2023/09/09 04:06:08;;;;;;;13.35;11.65;;;;;;;17.30;87.56;101126.88;5091175;28;20138;-61
2023/09/09 04:08:36;;;;;;;14.10;12.10;;;;;;;17.30;87.79;101121.56;5088058;28;20088;-58
2023/09/09 04:11:04;;;;;;;20.83;12.05;;;;;;;17.26;87.54;101130.75;5086473;28;20131;-56
2023/09/09 04:13:32;;;;;;;15.95;12.15;;;;;;;17.24;88.77;101127.34;5083760;28;20084;-60
2023/09/09 04:16:00;;;;;;;16.35;11.65;;;;;;;17.22;88.55;101124.81;5086331;28;20127;-58
2023/09/09 04:18:27;;;;;;;18.10;13.38;;;;;;;17.21;89.83;101125.78;5086195;28;20090;-59
2023/09/09 04:21:11;;;;;;;14.68;11.48;;;;;;;17.18;88.99;101123.38;5048961;28;20141;-60
2023/09/09 04:23:38;;;;;;;14.02;12.50;;;;;;;17.18;88.50;101124.22;5086228;28;20048;-58
2023/09/09 04:26:06;;;;;;;13.00;11.25;;;;;;;17.19;88.29;101127.72;5084152;28;20083;-59
2023/09/09 04:28:34;;;;;;;14.20;12.43;;;;;;;17.19;88.90;101119.72;5087402;28;20056;-62
2023/09/09 04:31:04;;;;;;;13.93;12.35;;;;;;;17.20;88.44;101129.41;5088772;28;20076;-60
2023/09/09 04:33:31;;;;;;;19.63;11.98;;;;;;;17.18;88.82;101118.03;5084745;28;20048;-60
2023/09/09 04:35:59;;;;;;;13.85;11.25;;;;;;;17.18;88.51;101113.56;5071254;28;20070;-60
2023/09/09 04:38:27;;;;;;;16.73;12.20;;;;;;;17.20;88.86;101118.75;5088338;28;20055;-59
2023/09/09 04:40:54;;;;;;;15.27;13.02;;;;;;;17.20;89.80;101116.09;5087312;28;20123;-57
2023/09/09 04:43:21;;;;;;;17.77;13.02;;;;;;;17.21;89.97;101123.13;5085552;28;20121;-61
2023/09/09 04:45:49;;;;;;;16.00;13.30;;;;;;;17.21;89.88;101123.97;5099586;22;20143;-79
2023/09/09 04:48:16;;;;;;;13.75;12.32;;;;;;;17.24;89.73;101117.53;5106692;28;20054;-80
2023/09/09 04:50:44;;;;;;;17.55;13.45;;;;;;;17.27;90.01;101119.13;5095996;28;20046;-78
2023/09/09 04:53:12;;;;;;;17.05;13.48;;;;;;;17.27;89.84;101122.63;5108058;28;20066;-79
2023/09/09 04:55:39;;;;;;;13.98;12.60;;;;;;;17.30;89.48;101119.75;5102887;28;20101;-80
2023/09/09 04:58:10;;;;;;;17.23;13.30;;;;;;;17.33;89.41;101126.63;5102759;28;20056;-79
2023/09/09 05:00:38;;;;;;;16.23;13.45;;;;;;;17.34;89.28;101120.34;5102624;28;20459;-79
2023/09/09 05:03:06;;;;;;;13.90;12.50;;;;;;;17.36;89.24;101124.56;5053276;28;20051;-79
2023/09/09 05:05:34;;;;;;;13.32;11.82;;;;;;;17.39;89.25;101124.34;5077072;28;20097;-81
2023/09/09 05:08:02;;;;;;;17.33;13.45;;;;;;;17.41;89.82;101129.53;5053739;28;20063;-81
2023/09/09 05:10:31;;;;;;;20.77;14.38;;;;;;;17.42;90.52;101125.88;5083346;28;20040;-80
2023/09/09 05:12:59;;;;;;;15.90;13.65;;;;;;;17.45;89.86;101121.16;5100527;28;20048;-79
2023/09/09 05:15:26;;;;;;;13.90;12.45;;;;;;;17.52;89.55;101120.69;5083695;28;20071;-82
2023/09/09 05:17:54;;;;;;;13.45;12.10;;;;;;;17.55;89.18;101126.59;5082592;28;20048;-81
2023/09/09 05:20:21;;;;;;;12.68;11.38;;;;;;;17.59;88.83;101129.88;5050730;28;20059;-79
2023/09/09 05:22:49;;;;;;;18.13;13.02;;;;;;;17.64;88.83;101122.34;5081427;28;20044;-80
2023/09/09 05:25:17;;;;;;;14.73;12.23;;;;;;;17.64;88.79;101133.84;5069244;28;20043;-83
2023/09/09 05:27:44;;;;;;;18.13;13.20;;;;;;;17.67;88.75;101120.28;5093973;28;20495;-82
2023/09/09 05:30:12;;;;;;;17.52;13.18;;;;;;;17.71;89.32;101136.88;5097014;28;20198;-80
2023/09/09 05:32:41;;;;;;;16.65;13.57;;;;;;;17.74;89.42;101125.97;5061390;28;20105;-81
2023/09/09 05:35:11;;;;;;;19.90;13.38;;;;;;;17.79;89.31;101129.16;5059651;28;20490;-80
2023/09/09 05:37:40;;;;;;;15.30;12.63;;;;;;;17.85;89.00;101122.47;5064817;28;20403;-81
2023/09/09 05:40:09;;;;;;;14.15;11.60;;;;;;;17.93;88.28;101130.69;5092311;28;20037;-81
2023/09/09 05:42:36;;;;;;;14.80;11.63;;;;;;;18.00;88.17;101131.84;5075655;28;20055;-80
2023/09/09 05:45:05;;;;;;;16.63;11.70;;;;;;;18.11;87.58;101133.66;5061082;28;20044;-80
2023/09/09 05:47:32;;;;;;;14.82;12.23;;;;;;;18.20;87.64;101128.41;5094497;28;20075;-81
2023/09/09 05:50:00;;;;;;;15.35;11.85;;;;;;;18.26;86.92;101136.84;5074440;28;20051;-82
2023/09/09 05:52:29;;;;;;;14.45;11.95;;;;;;;18.33;86.47;101127.41;5077767;28;20048;-78
2023/09/09 05:54:56;;;;;;;15.23;12.05;;;;;;;18.37;86.07;101139.47;5076077;28;20082;-82
2023/09/09 05:57:24;;;;;;;24.65;12.85;;;;;;;18.38;85.77;101134.03;5079466;28;20068;-79
2023/09/09 05:59:51;;;;;;;16.98;12.98;;;;;;;18.41;85.70;101138.22;5093530;28;20048;-81
2023/09/09 06:02:19;;;;;;;16.50;11.70;;;;;;;18.42;85.51;101135.47;5072468;28;20459;-80
2023/09/09 06:04:46;;;;;;;14.55;12.35;;;;;;;18.47;85.53;101140.41;5057796;28;20447;-81
2023/09/09 06:07:13;;;;;;;15.35;12.23;;;;;;;18.52;85.43;101137.34;5079490;28;20185;-80
2023/09/09 06:09:41;;;;;;;14.82;11.25;;;;;;;18.57;85.04;101149.31;5094665;28;20109;-81
2023/09/09 06:12:08;;;;;;;17.52;12.77;;;;;;;18.60;84.93;101146.41;5064830;28;20048;-79
2023/09/09 06:14:36;;;;;;;16.90;11.82;;;;;;;18.64;84.39;101150.50;5109204;27;20043;-80
2023/09/09 06:17:03;;;;;;;14.43;11.52;;;;;;;18.74;83.85;101147.94;5094929;28;20081;-80
2023/09/09 06:19:31;;;;;;;13.32;11.77;;;;;;;18.86;83.63;101143.34;5108141;27;20058;-80
2023/09/09 06:21:58;;;;;;;13.70;11.68;;;;;;;18.97;82.94;101143.28;5113468;27;20024;-79
2023/09/09 06:24:27;;;;;;;13.85;12.45;;;;;;;19.04;82.10;101141.75;5091069;27;20124;-79
2023/09/09 06:26:55;;;;;;;18.08;11.32;;;;;;;19.12;81.79;101149.13;5092802;28;20042;-80
2023/09/09 06:29:23;;;;;;;13.23;11.93;;;;;;;19.17;81.31;101149.56;5073571;27;20043;-79
2023/09/09 06:31:51;;;;;;;14.25;12.60;;;;;;;19.16;80.50;101154.06;5074432;28;20025;-78
2023/09/09 06:34:18;;;;;;;17.90;11.10;;;;;;;19.18;80.43;101157.47;5094588;27;20055;-78
2023/09/09 06:36:45;;;;;;;17.63;10.65;;;;;;;19.24;80.36;101161.41;5095445;27;20098;-80
2023/09/09 06:39:13;;;;;;;13.30;11.60;;;;;;;19.22;80.54;101164.19;5094475;28;20093;-79
2023/09/09 06:41:40;;;;;;;14.20;11.88;;;;;;;19.20;80.30;101154.66;5087074;28;20043;-82
2023/09/09 06:44:08;;;;;;;18.38;11.18;;;;;;;19.29;80.11;101161.84;5098042;28;20073;-82
2023/09/09 06:46:36;;;;;;;14.80;10.85;;;;;;;19.31;79.87;101159.88;5053489;28;20048;-82
2023/09/09 06:49:04;;;;;;;16.75;11.18;;;;;;;19.38;79.44;101165.53;5069769;28;20036;-80
2023/09/09 06:51:31;;;;;;;13.52;11.07;;;;;;;19.42;78.75;101164.28;5098185;28;20533;-81
2023/09/09 06:53:59;;;;;;;13.20;11.18;;;;;;;19.49;78.62;101171.63;5074550;28;20059;-81
2023/09/09 06:56:27;;;;;;;15.50;11.57;;;;;;;19.56;78.19;101173.75;5095090;28;20035;-79
2023/09/09 06:58:54;;;;;;;16.52;10.55;;;;;;;19.58;78.26;101174.47;5077434;28;20655;-80
2023/09/09 07:01:22;;;;;;;13.27;10.77;;;;;;;19.68;77.99;101176.22;5079241;28;20048;-81
2023/09/09 07:03:49;;;;;;;15.95;10.20;;;;;;;19.70;77.66;101176.94;5059879;28;20452;-81
2023/09/09 07:06:17;;;;;;;14.25;11.70;;;;;;;19.78;77.37;101178.09;5067746;28;20097;-81
2023/09/09 07:08:47;;;;;;;19.27;11.15;;;;;;;19.84;77.17;101174.84;5078019;28;20032;-81
2023/09/09 07:11:14;;;;;;;15.50;10.82;;;;;;;19.96;76.84;101171.94;5092679;28;20426;-81
2023/09/09 07:13:42;;;;;;;14.68;10.45;;;;;;;20.00;76.59;101172.50;5075099;28;20444;-81
2023/09/09 07:16:09;;;;;;;17.42;11.13;;;;;;;20.14;76.16;101176.59;5092326;28;20059;-80
2023/09/09 07:18:36;;;;;;;10.77;9.35;;;;;;;20.22;75.62;101172.25;5072983;28;20077;-80
2023/09/09 07:21:06;;;;;;;14.38;10.13;;;;;;;20.30;75.09;101174.22;5087157;28;20101;-82
2023/09/09 07:23:34;;;;;;;17.45;10.05;;;;;;;20.37;74.92;101166.50;5052936;28;20036;-76
2023/09/09 07:26:02;;;;;;;12.35;10.07;;;;;;;20.46;75.04;101171.00;5082791;28;20056;-79
2023/09/09 07:28:32;;;;;;;17.58;10.80;;;;;;;20.58;74.18;101167.22;5076765;28;20055;-77
2023/09/09 07:31:03;;;;;;;12.73;9.70;;;;;;;20.69;73.54;101164.38;5071138;28;20078;-78
2023/09/09 07:33:31;;;;;;;14.45;10.15;;;;;;;20.86;73.60;101170.00;5088791;28;20410;-76
2023/09/09 07:35:59;;;;;;;15.23;9.80;;;;;;;20.99;72.35;101176.72;5089016;28;20036;-78
2023/09/09 07:38:26;;;;;;;12.52;9.40;;;;;;;21.01;71.73;101171.22;5045316;28;20127;-79
2023/09/09 07:40:58;;;;;;;23.85;10.63;;;;;;;21.03;71.58;101176.44;5081392;28;20109;-79
2023/09/09 07:43:26;;;;;;;10.10;8.15;;;;;;;21.16;71.43;101169.78;5032111;28;20051;-79
2023/09/09 07:45:54;;;;;;;15.65;9.88;;;;;;;21.32;71.18;101168.34;5067189;28;20040;-78
2023/09/09 07:48:21;;;;;;;16.13;8.70;;;;;;;21.47;70.04;101173.06;5065851;28;20070;-78
2023/09/09 07:50:54;;;;;;;12.70;8.98;;;;;;;21.62;69.39;101173.44;5077522;28;20219;-79
2023/09/09 07:53:23;;;;;;;10.95;9.10;;;;;;;21.59;68.77;101175.56;5068510;28;20063;-78
2023/09/09 07:55:51;;;;;;;10.55;8.70;;;;;;;21.73;68.29;101172.38;5065667;28;20070;-79
2023/09/09 07:58:18;;;;;;;16.00;8.65;;;;;;;21.90;67.59;101176.94;5061104;28;20496;-76
2023/09/09 08:01:06;;;;;;;16.02;9.05;;;;;;;22.11;66.66;101175.81;5087175;28;20043;-77
2023/09/09 08:03:34;;;;;;;10.15;8.98;;;;;;;22.25;66.53;101178.00;5058049;28;20516;-77
2023/09/09 08:06:06;;;;;;;11.93;8.82;;;;;;;22.39;65.58;101173.94;5050825;28;20035;-77
2023/09/09 08:08:45;;;;;;;13.05;8.32;;;;;;;22.47;64.95;101177.56;5094582;27;20073;-79
2023/09/09 08:11:12;;;;;;;11.63;8.70;;;;;;;22.56;64.86;101174.91;5066054;28;20052;-79
2023/09/09 08:13:39;;;;;;;11.55;8.68;;;;;;;22.67;63.82;101175.53;5081464;22;20511;-58
2023/09/09 08:16:08;;;;;;;10.52;8.10;;;;;;;22.82;63.51;101170.44;5076552;28;20044;-55
2023/09/09 08:18:35;;;;;;;8.80;7.90;;;;;;;23.00;62.93;101175.78;5066410;28;20060;-60
2023/09/09 08:21:03;;;;;;;9.30;8.30;;;;;;;23.17;61.95;101176.75;5063953;28;20068;-57
2023/09/09 08:23:32;;;;;;;9.65;8.20;;;;;;;23.25;61.28;101172.25;5066882;28;20131;-58
2023/09/09 08:25:59;;;;;;;11.80;8.70;;;;;;;23.37;60.66;101174.66;5063810;28;20094;-57
2023/09/09 08:28:26;;;;;;;11.13;8.02;;;;;;;23.52;60.17;101182.97;5066472;28;20168;-56
2023/09/09 08:31:00;;;;;;;12.27;7.45;;;;;;;23.41;58.58;101176.84;5065643;28;20088;-56
2023/09/09 08:33:27;;;;;;;9.40;7.68;;;;;;;23.45;59.59;101174.69;5066394;28;20056;-58
2023/09/09 08:35:59;;;;;;;13.25;7.85;;;;;;;23.66;58.62;101172.47;5046691;28;20137;-54
2023/09/09 08:38:26;;;;;;;9.15;7.18;;;;;;;23.72;58.17;101177.19;5062595;28;20554;-60
2023/09/09 08:41:18;;;;;;;10.60;7.55;;;;;;;23.85;57.91;101173.22;5055525;28;20147;-57
2023/09/09 08:44:10;;;;;;;8.57;6.78;;;;;;;23.96;57.82;101181.81;5063222;28;20178;-57
2023/09/09 08:46:38;;;;;;;8.93;7.15;;;;;;;24.21;57.15;101177.31;5071940;28;20143;-59
2023/09/09 08:49:06;;;;;;;9.13;6.95;;;;;;;24.40;56.74;101183.44;5063365;28;20090;-60
2023/09/09 08:52:08;;;;;;;8.55;7.65;;;;;;;24.48;55.74;101178.88;5046347;28;20060;-57
2023/09/09 08:54:35;;;;;;;16.65;7.60;;;;;;;24.58;54.87;101183.25;5036570;28;20122;-57
2023/09/09 08:57:03;;;;;;;10.20;7.05;;;;;;;24.75;55.23;101183.09;5044501;28;20068;-57
2023/09/09 08:59:31;;;;;;;11.07;6.35;;;;;;;24.89;54.36;101183.41;5058595;28;20124;-54
2023/09/09 09:01:59;;;;;;;8.00;7.03;;;;;;;24.89;53.28;101184.25;5057443;28;20052;-61
2023/09/09 09:04:27;;;;;;;8.10;6.85;;;;;;;25.06;53.24;101178.84;5050461;28;20609;-59
2023/09/09 09:06:55;;;;;;;7.07;6.18;;;;;;;25.22;53.34;101185.09;5047294;28;20144;-57
2023/09/09 09:09:23;;;;;;;12.55;7.28;;;;;;;25.40;52.25;101186.72;5065648;28;20044;-60
2023/09/09 09:11:50;;;;;;;15.73;6.75;;;;;;;25.48;52.19;101184.81;5050378;28;20072;-58
2023/09/09 09:14:17;;;;;;;13.73;6.40;;;;;;;25.65;52.14;101182.91;5061594;28;20072;-56
2023/09/09 09:16:45;;;;;;;8.05;5.68;;;;;;;25.75;51.27;101191.59;5072788;28;20094;-56
2023/09/09 09:19:21;;;;;;;7.45;6.20;;;;;;;25.81;51.06;101184.72;5051961;28;20045;-54
2023/09/09 09:21:49;;;;;;;9.70;6.55;;;;;;;26.00;50.28;101183.44;5063011;28;20076;-57
2023/09/09 09:24:22;;;;;;;11.18;6.47;;;;;;;26.13;50.02;101178.28;5050923;28;20238;-58
2023/09/09 09:26:49;;;;;;;8.30;6.32;;;;;;;26.31;49.95;101179.88;5061406;28;20064;-57
2023/09/09 09:29:16;;;;;;;9.40;6.05;;;;;;;26.45;49.46;101174.56;5061889;28;20106;-60
2023/09/09 09:31:53;;;;;;;10.05;6.40;;;;;;;26.63;49.09;101176.94;5049745;28;20052;-57
2023/09/09 09:34:22;;;;;;;6.63;5.93;;;;;;;26.67;48.08;101180.13;5046833;28;20052;-58
2023/09/09 09:36:49;;;;;;;14.10;7.18;;;;;;;26.63;47.31;101176.94;5043682;28;20041;-54
2023/09/09 09:39:16;;;;;;;11.70;6.50;;;;;;;26.67;46.50;101172.84;5045415;28;20147;-54
2023/09/09 09:41:44;;;;;;;8.68;5.75;;;;;;;26.62;46.21;101169.03;5061925;28;20409;-58
2023/09/09 09:44:19;;;;;;;10.00;6.18;;;;;;;26.71;46.27;101168.75;5046236;28;20163;-59
2023/09/09 09:47:02;;;;;;;8.50;6.60;;;;;;;26.82;45.53;101167.47;5062696;28;20653;-55
2023/09/09 09:49:37;;;;;;;7.80;6.03;;;;;;;26.99;46.08;101165.47;5058368;28;20132;-57
2023/09/09 09:52:05;;;;;;;6.07;5.50;;;;;;;27.12;45.79;101168.38;5061064;28;20080;-60
2023/09/09 09:54:34;;;;;;;8.48;5.63;;;;;;;27.32;45.56;101165.13;5061976;28;20584;-58
2023/09/09 09:57:03;;;;;;;13.65;6.68;;;;;;;27.46;44.59;101166.97;5059711;28;20132;-58
2023/09/09 09:59:32;;;;;;;10.93;7.15;;;;;;;27.42;44.92;101166.53;5061769;28;20144;-56
2023/09/09 10:02:00;;;;;;;12.60;8.18;;;;;;;27.47;44.50;101158.69;5059946;28;20497;-60
2023/09/09 10:04:28;;;;;;;12.48;9.68;;;;;;;27.57;44.00;101157.56;5068119;28;20471;-56
2023/09/09 10:06:57;;;;;;;12.73;9.43;;;;;;;27.60;43.37;101149.88;5044065;28;20139;-58
2023/09/09 10:09:37;;;;;;;10.00;8.48;;;;;;;27.76;43.33;101147.00;5058775;28;20091;-55
2023/09/09 10:12:30;;;;;;;16.33;8.57;;;;;;;28.08;42.98;101146.72;5046194;28;20607;-57
2023/09/09 10:15:16;;;;;;;19.15;13.25;;;;;;;28.12;41.86;101148.00;5044003;28;20193;-58
2023/09/09 10:17:44;;;;;;;14.25;6.07;;;;;;;28.30;41.64;101144.84;5060431;28;20135;-56
2023/09/09 10:20:12;;;;;;;12.25;5.80;;;;;;;28.31;41.34;101139.22;5067339;28;20123;-54
2023/09/09 10:22:40;;;;;;;6.10;5.30;;;;;;;28.49;41.18;101138.81;5042642;28;20136;-56
2023/09/09 10:25:10;;;;;;;9.80;5.00;;;;;;;28.58;40.65;101134.91;5061884;28;20131;-57
2023/09/09 10:27:41;;;;;;;8.15;6.13;;;;;;;28.69;39.95;101133.56;5064260;28;20224;-58
2023/09/09 10:30:09;;;;;;;10.88;5.30;;;;;;;28.59;37.99;101133.03;5059942;28;20083;-60
2023/09/09 10:32:38;;;;;;;19.80;13.80;;;;;;;28.63;37.73;101135.16;5063979;28;20594;-54
2023/09/09 10:35:06;;;;;;;30.70;22.55;;;;;;;28.80;37.69;101130.28;5065083;28;20048;-57
2023/09/09 10:37:35;;;;;;;9.70;7.57;;;;;;;28.89;36.73;101134.53;5058328;28;20062;-55
2023/09/09 10:40:04;;;;;;;12.02;10.25;;;;;;;28.88;37.34;101138.28;5060228;28;20044;-58
2023/09/09 10:42:34;;;;;;;8.25;7.32;;;;;;;28.76;36.01;101135.25;5063342;28;20080;-55
2023/09/09 10:45:28;;;;;;;19.58;16.02;;;;;;;28.72;35.13;101127.72;5042351;28;20132;-58
2023/09/09 10:47:58;;;;;;;28.80;25.85;;;;;;;28.73;35.05;101130.25;5057906;28;20087;-59
2023/09/09 10:50:45;;;;;;;35.08;26.63;;;;;;;28.74;34.63;101134.63;5044090;28;20675;-57
2023/09/09 10:53:23;;;;;;;14.63;9.32;;;;;;;28.87;35.24;101131.19;5059398;28;20098;-58
2023/09/09 10:55:53;;;;;;;9.52;7.63;;;;;;;29.10;34.45;101135.53;5043358;28;20207;-59
2023/09/09 10:58:32;;;;;;;14.48;10.15;;;;;;;29.11;33.50;101135.31;5063145;28;20048;-55
2023/09/09 11:01:00;;;;;;;9.25;6.53;;;;;;;29.23;33.40;101128.31;5060050;28;20115;-58
2023/09/09 11:03:30;;;;;;;5.45;4.38;;;;;;;29.40;32.98;101119.81;5061339;28;20072;-57
2023/09/09 11:06:07;;;;;;;16.17;9.45;;;;;;;29.57;33.43;101123.03;5044097;28;20125;-56
2023/09/09 11:08:42;;;;;;;14.82;8.38;;;;;;;29.76;33.51;101130.41;5061216;28;20048;-58
2023/09/09 11:11:13;;;;;;;9.38;5.30;;;;;;;29.93;33.38;101131.72;5060072;28;20079;-56
2023/09/09 11:14:04;;;;;;;9.40;4.50;;;;;;;29.96;32.95;101122.34;5062566;28;20139;-59
2023/09/09 11:16:37;;;;;;;9.70;5.20;;;;;;;30.08;33.37;101126.13;5049641;28;20080;-58
2023/09/09 11:19:06;;;;;;;5.30;4.78;;;;;;;30.32;33.67;101115.72;5060480;28;20076;-55
2023/09/09 11:21:35;;;;;;;5.43;4.28;;;;;;;30.71;33.39;101113.03;5061921;28;20085;-54
2023/09/09 11:24:03;;;;;;;7.55;4.50;;;;;;;30.97;32.47;101111.28;5042792;28;20597;-57